Time;durP1;ratioP1;P1;durP2;ratioP2;P2;SDS_P1;SDS_P2;PMS_P1;PMS_P2;Temp;Humidity;BMP_temperature;BMP_pressure;BME280_temperature;BME280_humidity;BME280_pressure;Samples;Min_cycle;Max_cycle;Signal;HPM_P1;HPM_P2
2022/07/05 00:00:46;;;;;;;1.73;1.20;;;18.70;92.20;;;;;;2077426;28;20041;-70
2022/07/05 00:01:47;;;;;;;2.97;1.45;;;18.70;92.00;;;;;;2067868;28;20037;-70
2022/07/05 00:02:48;;;;;;;4.55;1.42;;;18.60;92.90;;;;;;2066938;28;20027;-70
2022/07/05 00:03:48;;;;;;;1.13;0.93;;;18.60;93.20;;;;;;2076663;28;20029;-70
2022/07/05 00:04:50;;;;;;;2.35;1.38;;;18.60;93.60;;;;;;2076112;28;20051;-70
2022/07/05 00:05:51;;;;;;;3.53;1.48;;;18.60;94.20;;;;;;2076183;28;20032;-70
2022/07/05 00:08:11;;;;;;;1.75;1.30;;;18.60;93.60;;;;;;2075887;28;20022;-70
2022/07/05 00:09:12;;;;;;;1.50;1.40;;;18.50;94.10;;;;;;2075399;28;20053;-70
2022/07/05 00:10:12;;;;;;;1.17;1.08;;;18.50;94.90;;;;;;2078255;28;20057;-70
2022/07/05 00:11:13;;;;;;;1.00;1.00;;;18.50;94.30;;;;;;2077395;28;20029;-70
2022/07/05 00:12:14;;;;;;;1.42;1.33;;;18.50;94.50;;;;;;2078286;28;20080;-70
2022/07/05 00:13:15;;;;;;;2.63;1.17;;;18.50;95.00;;;;;;2076624;28;20034;-70
2022/07/05 00:14:15;;;;;;;1.90;1.02;;;18.50;95.50;;;;;;2076963;28;20559;-70
2022/07/05 00:15:17;;;;;;;1.63;1.30;;;18.40;95.60;;;;;;2078482;28;20548;-70
2022/07/05 00:16:18;;;;;;;3.00;1.30;;;18.40;95.30;;;;;;2077831;28;20026;-70
2022/07/05 00:17:18;;;;;;;2.42;1.30;;;18.40;95.80;;;;;;2075559;28;20037;-70
2022/07/05 00:18:19;;;;;;;1.20;1.10;;;18.40;96.10;;;;;;2077445;28;20048;-70
2022/07/05 00:19:19;;;;;;;1.35;1.10;;;18.30;96.80;;;;;;2076351;28;20029;-70
2022/07/05 00:20:20;;;;;;;2.13;1.30;;;18.30;96.40;;;;;;2076057;28;20029;-70
2022/07/05 00:21:21;;;;;;;1.60;1.50;;;18.30;96.00;;;;;;2076177;28;20428;-70
2022/07/05 00:22:21;;;;;;;1.95;1.50;;;18.30;96.80;;;;;;2076236;28;20604;-70
2022/07/05 00:23:22;;;;;;;1.75;1.40;;;18.30;97.00;;;;;;2077920;28;20096;-70
2022/07/05 00:24:24;;;;;;;1.05;0.98;;;18.30;97.40;;;;;;2078710;28;20030;-70
2022/07/05 00:25:24;;;;;;;1.48;1.27;;;18.30;96.20;;;;;;2076881;28;20105;-70
2022/07/05 00:26:25;;;;;;;4.32;1.20;;;18.20;96.80;;;;;;2077416;28;20022;-70
2022/07/05 00:27:25;;;;;;;1.30;1.15;;;18.20;97.10;;;;;;2066803;28;20145;-70
2022/07/05 00:28:26;;;;;;;2.70;1.20;;;18.20;96.40;;;;;;2069217;28;20091;-70
2022/07/05 00:29:27;;;;;;;1.27;1.20;;;18.20;96.60;;;;;;2077977;28;20040;-70
2022/07/05 00:30:27;;;;;;;2.05;1.65;;;18.20;97.70;;;;;;2076516;28;20413;-70
2022/07/05 00:31:28;;;;;;;2.40;1.50;;;18.20;97.70;;;;;;2077577;28;20025;-70
2022/07/05 00:32:29;;;;;;;1.48;1.15;;;18.10;97.80;;;;;;2077960;28;20079;-70
2022/07/05 00:33:29;;;;;;;1.30;1.20;;;18.10;98.20;;;;;;2075261;28;20040;-70
2022/07/05 00:34:30;;;;;;;2.22;1.20;;;18.10;97.20;;;;;;2076676;28;20037;-70
2022/07/05 00:35:31;;;;;;;3.35;1.33;;;18.10;97.90;;;;;;2074225;28;20109;-70
2022/07/05 00:36:31;;;;;;;1.73;1.42;;;18.10;98.50;;;;;;2074388;28;20155;-70
2022/07/05 00:37:32;;;;;;;3.08;1.25;;;18.10;97.60;;;;;;2076409;28;20508;-70
2022/07/05 00:38:32;;;;;;;1.17;1.00;;;18.00;97.20;;;;;;2076340;28;20029;-70
2022/07/05 00:39:33;;;;;;;1.40;1.23;;;18.00;97.80;;;;;;2076592;28;20076;-70
2022/07/05 00:40:34;;;;;;;1.92;1.20;;;18.00;97.30;;;;;;2078530;28;20108;-70
2022/07/05 00:41:35;;;;;;;1.20;1.10;;;18.00;97.40;;;;;;2079058;28;20041;-70
2022/07/05 00:42:35;;;;;;;1.77;1.30;;;18.00;97.80;;;;;;2074492;28;20036;-70
2022/07/05 00:43:36;;;;;;;1.83;1.45;;;17.90;97.30;;;;;;2078673;28;20033;-70
2022/07/05 00:44:39;;;;;;;2.25;1.45;;;17.90;98.20;;;;;;2078306;28;20445;-70
2022/07/05 00:45:39;;;;;;;2.47;1.13;;;17.90;98.90;;;;;;2078449;28;20096;-70
2022/07/05 00:46:43;;;;;;;1.60;1.48;;;17.90;99.40;;;;;;2074879;28;20077;-70
2022/07/05 00:47:44;;;;;;;2.35;1.40;;;17.90;99.60;;;;;;2077583;28;20044;-70
2022/07/05 00:48:44;;;;;;;4.38;1.50;;;17.80;99.90;;;;;;2076700;28;20033;-70
2022/07/05 00:49:45;;;;;;;1.48;1.20;;;17.80;99.70;;;;;;2076270;28;20405;-70
2022/07/05 00:50:46;;;;;;;3.80;1.15;;;17.80;99.70;;;;;;2076262;28;20033;-70
2022/07/05 00:51:46;;;;;;;1.35;1.20;;;17.80;99.20;;;;;;2077392;28;20025;-70
2022/07/05 00:52:47;;;;;;;1.50;1.40;;;17.80;99.40;;;;;;2078588;28;20029;-70
2022/07/05 00:53:48;;;;;;;1.80;1.30;;;17.80;99.90;;;;;;2079331;28;20058;-70
2022/07/05 00:54:49;;;;;;;2.65;1.35;;;17.80;99.90;;;;;;2076030;28;20087;-70
2022/07/05 00:55:50;;;;;;;1.52;1.00;;;17.80;99.90;;;;;;2075969;28;20108;-70
2022/07/05 00:56:52;;;;;;;1.55;1.10;;;17.70;99.90;;;;;;2076330;28;20022;-70
2022/07/05 00:57:54;;;;;;;1.30;1.20;;;17.70;99.90;;;;;;2076595;28;20167;-70
2022/07/05 00:58:55;;;;;;;1.30;1.20;;;17.70;99.90;;;;;;2077773;28;20033;-70
2022/07/05 00:59:55;;;;;;;2.50;1.25;;;17.70;99.90;;;;;;2076229;28;20026;-70
2022/07/05 01:00:56;;;;;;;2.65;1.50;;;17.70;99.90;;;;;;2078589;28;20013;-70
2022/07/05 01:01:57;;;;;;;2.75;1.20;;;17.60;99.90;;;;;;2078230;28;20029;-70
2022/07/05 01:02:58;;;;;;;1.13;1.02;;;17.60;99.70;;;;;;2074133;28;20018;-70
2022/07/05 01:03:58;;;;;;;1.42;1.13;;;17.60;99.90;;;;;;2073771;28;20026;-70
2022/07/05 01:05:00;;;;;;;2.22;1.40;;;17.60;99.90;;;;;;2074698;28;20028;-70
2022/07/05 01:06:09;;;;;;;1.80;1.42;;;17.60;99.90;;;;;;2072238;28;20029;-70
2022/07/05 01:07:09;;;;;;;2.00;1.27;;;17.60;99.90;;;;;;2078427;28;20013;-70
2022/07/05 01:08:12;;;;;;;2.55;1.45;;;17.50;99.90;;;;;;2076735;28;20125;-70
2022/07/05 01:09:16;;;;;;;2.67;1.75;;;17.50;99.90;;;;;;2078471;28;20064;-70
2022/07/05 01:10:17;;;;;;;2.20;1.10;;;17.50;99.90;;;;;;2077633;28;20037;-70
2022/07/05 01:11:18;;;;;;;2.80;1.52;;;17.50;99.90;;;;;;2077935;28;20079;-70
2022/07/05 01:12:18;;;;;;;1.33;1.23;;;17.50;99.90;;;;;;2077631;28;20087;-70
2022/07/05 01:13:19;;;;;;;2.13;1.50;;;17.50;99.90;;;;;;2075180;28;20053;-70
2022/07/05 01:14:22;;;;;;;1.52;1.42;;;17.50;99.90;;;;;;2078292;28;20136;-70
2022/07/05 01:15:24;;;;;;;1.35;1.20;;;17.50;99.90;;;;;;2076954;28;20037;-70
2022/07/05 01:16:25;;;;;;;2.65;1.73;;;17.50;99.90;;;;;;2078956;28;20041;-70
2022/07/05 01:17:27;;;;;;;1.05;1.00;;;17.50;99.90;;;;;;2080420;28;20079;-70
2022/07/05 01:18:28;;;;;;;2.00;1.30;;;17.50;99.90;;;;;;2080489;28;20029;-70
2022/07/05 01:19:29;;;;;;;2.28;1.10;;;17.50;99.90;;;;;;2079335;28;20032;-70
2022/07/05 01:20:30;;;;;;;1.05;1.00;;;17.50;99.90;;;;;;2080488;28;20682;-70
2022/07/05 01:21:32;;;;;;;3.40;1.40;;;17.40;99.90;;;;;;2078108;28;20013;-70
2022/07/05 01:22:50;;;;;;;2.95;1.63;;;17.50;99.90;;;;;;2077675;28;20026;-70
2022/07/05 01:23:50;;;;;;;2.72;1.10;;;17.50;99.90;;;;;;2079026;28;20022;-70
2022/07/05 01:24:51;;;;;;;3.53;1.67;;;17.40;99.90;;;;;;2078594;28;20025;-70
2022/07/05 01:25:54;;;;;;;1.40;1.30;;;17.50;99.90;;;;;;2077084;28;20025;-70
2022/07/05 01:26:55;;;;;;;2.17;1.33;;;17.50;99.90;;;;;;2078783;28;20028;-70
2022/07/05 01:27:58;;;;;;;1.27;1.17;;;17.40;99.90;;;;;;2079244;28;20028;-70
2022/07/05 01:28:58;;;;;;;2.97;1.60;;;17.50;99.90;;;;;;2078139;28;20075;-70
2022/07/05 01:29:59;;;;;;;1.17;1.17;;;17.50;99.90;;;;;;2079837;28;20033;-70
2022/07/05 01:31:02;;;;;;;2.33;1.67;;;17.50;99.90;;;;;;2078406;28;20034;-70
2022/07/05 01:32:03;;;;;;;3.28;1.35;;;17.50;99.90;;;;;;2079930;28;20021;-70
2022/07/05 01:33:06;;;;;;;1.30;1.20;;;17.50;99.90;;;;;;2080699;28;20037;-70
2022/07/05 01:34:07;;;;;;;2.85;1.40;;;17.50;99.90;;;;;;2079063;28;20481;-70
2022/07/05 01:35:09;;;;;;;3.17;1.30;;;17.50;99.90;;;;;;2077892;28;20488;-70
2022/07/05 01:36:11;;;;;;;1.75;1.40;;;17.50;99.90;;;;;;2077901;28;20482;-70
2022/07/05 01:37:12;;;;;;;2.38;1.42;;;17.50;99.90;;;;;;2077629;28;20025;-70
2022/07/05 01:38:13;;;;;;;2.67;1.45;;;17.50;99.90;;;;;;2077934;28;20116;-70
2022/07/05 01:39:15;;;;;;;1.55;1.35;;;17.50;99.90;;;;;;2079541;28;20026;-70
2022/07/05 01:40:17;;;;;;;2.35;1.50;;;17.50;99.90;;;;;;2078798;28;20052;-70
2022/07/05 01:41:17;;;;;;;2.45;1.10;;;17.50;99.90;;;;;;2079666;28;20029;-70
2022/07/05 01:42:18;;;;;;;2.22;1.40;;;17.50;99.90;;;;;;2080265;28;20028;-70
2022/07/05 01:43:20;;;;;;;1.40;1.27;;;17.50;99.90;;;;;;2077858;28;20037;-70
2022/07/05 01:44:20;;;;;;;2.38;1.67;;;17.50;99.90;;;;;;2074924;28;20067;-70
2022/07/05 01:45:39;;;;;;;3.05;1.85;;;17.50;99.90;;;;;;2079279;28;20032;-70
2022/07/05 01:46:42;;;;;;;1.50;1.40;;;17.50;99.90;;;;;;2078936;28;20021;-70
2022/07/05 01:47:48;;;;;;;1.33;1.23;;;17.50;99.90;;;;;;2078689;28;20022;-70
2022/07/05 01:48:51;;;;;;;3.97;1.60;;;17.50;99.90;;;;;;2077834;28;20030;-70
2022/07/05 01:49:54;;;;;;;2.22;1.60;;;17.50;99.90;;;;;;2077599;28;20116;-70
2022/07/05 01:51:03;;;;;;;2.67;1.38;;;17.50;99.90;;;;;;2076266;28;20080;-70
2022/07/05 01:52:09;;;;;;;1.63;1.05;;;17.50;99.90;;;;;;2078089;28;20061;-70
2022/07/05 01:53:21;;;;;;;1.52;1.38;;;17.60;99.90;;;;;;2076667;28;20088;-70
2022/07/05 01:54:22;;;;;;;1.50;1.35;;;17.60;99.90;;;;;;2075277;28;20026;-70
2022/07/05 01:55:22;;;;;;;3.63;1.58;;;17.50;99.90;;;;;;2077857;28;20061;-70
2022/07/05 01:56:23;;;;;;;2.22;1.42;;;17.60;99.90;;;;;;2077148;28;20048;-70
2022/07/05 01:57:24;;;;;;;3.60;1.60;;;17.60;99.90;;;;;;2078547;28;20088;-70
2022/07/05 01:58:25;;;;;;;1.52;1.40;;;17.60;99.90;;;;;;2077052;28;20507;-70
2022/07/05 01:59:27;;;;;;;2.58;1.65;;;17.60;99.90;;;;;;2078069;28;20543;-70
2022/07/05 02:00:28;;;;;;;2.33;1.05;;;17.60;99.90;;;;;;2077792;28;20029;-70
2022/07/05 02:01:37;;;;;;;2.85;1.60;;;17.60;99.90;;;;;;2079729;28;20101;-70
2022/07/05 02:02:41;;;;;;;2.95;1.40;;;17.60;99.90;;;;;;2078819;28;20408;-70
2022/07/05 02:03:43;;;;;;;1.42;1.33;;;17.60;99.90;;;;;;2078644;28;20030;-70
2022/07/05 02:04:44;;;;;;;1.58;1.13;;;17.60;99.90;;;;;;2078459;28;20515;-70
2022/07/05 02:05:45;;;;;;;1.60;1.50;;;17.60;99.90;;;;;;2079048;28;20448;-70
2022/07/05 02:06:46;;;;;;;1.63;1.52;;;17.60;99.90;;;;;;2079705;28;20029;-70
2022/07/05 02:07:50;;;;;;;2.55;1.38;;;17.60;99.90;;;;;;2076299;28;20025;-70
2022/07/05 02:08:50;;;;;;;2.28;1.48;;;17.60;99.90;;;;;;2076378;28;20022;-70
2022/07/05 02:09:51;;;;;;;1.45;1.35;;;17.60;99.90;;;;;;2076412;28;20105;-70
2022/07/05 02:10:52;;;;;;;4.70;1.65;;;17.60;99.90;;;;;;2076130;28;20076;-70
2022/07/05 02:11:52;;;;;;;2.05;1.38;;;17.60;99.90;;;;;;2080041;28;20374;-70
2022/07/05 02:12:53;;;;;;;1.33;1.10;;;17.70;99.90;;;;;;2077169;28;20057;-70
2022/07/05 02:13:54;;;;;;;4.55;1.50;;;17.70;99.90;;;;;;2077562;28;20473;-70
2022/07/05 02:14:54;;;;;;;2.67;1.55;;;17.60;99.90;;;;;;2078600;28;20083;-70
2022/07/05 02:15:55;;;;;;;2.00;1.45;;;17.70;99.90;;;;;;2077645;28;20029;-70
2022/07/05 02:16:55;;;;;;;3.10;1.73;;;17.60;99.90;;;;;;2079114;28;20083;-70
2022/07/05 02:17:56;;;;;;;2.92;1.55;;;17.60;99.90;;;;;;2079305;28;20052;-70
2022/07/05 02:18:57;;;;;;;2.30;1.38;;;17.60;99.90;;;;;;2077386;28;20018;-70
2022/07/05 02:19:58;;;;;;;2.10;1.50;;;17.60;99.90;;;;;;2077996;28;20283;-70
2022/07/05 02:20:58;;;;;;;1.83;1.63;;;17.60;99.90;;;;;;2078630;28;20022;-70
2022/07/05 02:21:59;;;;;;;1.50;1.40;;;17.60;99.90;;;;;;2076483;28;20034;-70
2022/07/05 02:23:00;;;;;;;1.90;1.10;;;17.60;99.90;;;;;;2078748;28;20018;-70
2022/07/05 02:24:01;;;;;;;1.13;1.10;;;17.60;99.90;;;;;;2074917;28;20343;-70
2022/07/05 02:25:02;;;;;;;2.70;1.45;;;17.70;99.90;;;;;;2078683;28;20064;-70
2022/07/05 02:26:02;;;;;;;5.93;1.40;;;17.70;99.90;;;;;;2075669;28;20463;-70
2022/07/05 02:27:03;;;;;;;2.08;1.48;;;17.60;99.90;;;;;;2075304;28;20026;-70
2022/07/05 02:28:04;;;;;;;2.33;1.38;;;17.60;99.90;;;;;;2076906;28;20025;-70
2022/07/05 02:29:05;;;;;;;2.42;1.70;;;17.60;99.90;;;;;;2077259;28;20034;-70
2022/07/05 02:30:06;;;;;;;1.70;1.60;;;17.60;99.90;;;;;;2077164;28;20541;-70
2022/07/05 02:31:07;;;;;;;3.45;1.60;;;17.60;99.90;;;;;;2077452;28;20021;-70
2022/07/05 02:32:08;;;;;;;2.63;1.40;;;17.60;99.90;;;;;;2076147;28;20025;-70
2022/07/05 02:33:09;;;;;;;1.48;1.25;;;17.60;99.90;;;;;;2075900;28;20053;-70
2022/07/05 02:34:09;;;;;;;3.85;1.48;;;17.60;99.90;;;;;;2078019;28;20037;-70
2022/07/05 02:35:10;;;;;;;2.15;1.20;;;17.60;99.90;;;;;;2078348;28;20807;-70
2022/07/05 02:36:12;;;;;;;2.75;1.85;;;17.60;99.90;;;;;;2077989;28;20025;-70
2022/07/05 02:37:13;;;;;;;2.38;1.40;;;17.60;99.90;;;;;;2078231;28;20546;-70
2022/07/05 02:38:14;;;;;;;1.90;1.25;;;17.50;99.90;;;;;;2075547;28;20402;-70
2022/07/05 02:39:14;;;;;;;2.75;1.33;;;17.60;99.90;;;;;;2077583;28;20914;-70
2022/07/05 02:40:15;;;;;;;2.70;1.40;;;17.60;99.90;;;;;;2075380;28;20025;-70
2022/07/05 02:41:15;;;;;;;1.50;1.40;;;17.50;99.90;;;;;;2075704;28;20080;-70
2022/07/05 02:42:16;;;;;;;1.52;1.23;;;17.50;99.90;;;;;;2076985;28;20021;-70
2022/07/05 02:43:17;;;;;;;1.90;1.30;;;17.50;99.90;;;;;;2078937;28;20530;-70
2022/07/05 02:44:17;;;;;;;1.60;1.50;;;17.50;99.90;;;;;;2075782;28;20052;-70
2022/07/05 02:45:18;;;;;;;1.58;1.35;;;17.40;99.90;;;;;;2075957;28;20099;-70
2022/07/05 02:46:18;;;;;;;2.38;1.30;;;17.50;99.90;;;;;;2076155;28;20022;-70
2022/07/05 02:47:19;;;;;;;2.58;1.45;;;17.40;99.90;;;;;;2078650;28;20112;-70
2022/07/05 02:48:20;;;;;;;1.45;1.00;;;17.50;99.90;;;;;;2071920;28;20029;-70
2022/07/05 02:49:20;;;;;;;2.08;1.33;;;17.40;99.90;;;;;;2071362;28;20029;-70
2022/07/05 02:50:21;;;;;;;1.60;1.33;;;17.50;99.90;;;;;;2079809;28;20508;-70
2022/07/05 02:51:21;;;;;;;2.40;1.73;;;17.40;99.90;;;;;;2080433;28;20030;-70
2022/07/05 02:52:22;;;;;;;1.50;1.40;;;17.50;99.90;;;;;;2079991;28;20062;-70
2022/07/05 02:53:23;;;;;;;1.70;1.60;;;17.40;99.90;;;;;;2077561;28;20619;-70
2022/07/05 02:54:24;;;;;;;3.25;1.40;;;17.40;99.90;;;;;;2075020;28;20022;-70
2022/07/05 02:55:24;;;;;;;3.85;1.50;;;17.40;99.90;;;;;;2077484;28;20032;-70
2022/07/05 02:56:25;;;;;;;2.78;1.33;;;17.40;99.90;;;;;;2074013;28;20560;-71
2022/07/05 02:57:26;;;;;;;2.85;1.60;;;17.40;99.90;;;;;;2074133;28;20151;-70
2022/07/05 02:58:26;;;;;;;3.58;1.30;;;17.40;99.90;;;;;;2079017;28;20120;-70
2022/07/05 02:59:27;;;;;;;2.60;1.38;;;17.40;99.90;;;;;;2079506;28;20029;-70
2022/07/05 03:00:28;;;;;;;1.90;1.50;;;17.40;99.90;;;;;;2077996;28;20059;-70
2022/07/05 03:01:29;;;;;;;2.67;1.15;;;17.40;99.90;;;;;;2077381;28;20025;-70
2022/07/05 03:02:30;;;;;;;3.30;1.60;;;17.40;99.90;;;;;;2078692;28;20108;-70
2022/07/05 03:03:31;;;;;;;2.65;1.65;;;17.40;99.90;;;;;;2079204;28;20516;-70
2022/07/05 03:04:31;;;;;;;3.15;1.63;;;17.30;99.90;;;;;;2077443;28;20385;-70
2022/07/05 03:05:32;;;;;;;2.97;1.70;;;17.40;99.90;;;;;;2068643;28;20056;-70
2022/07/05 03:06:33;;;;;;;2.75;1.60;;;17.30;99.90;;;;;;2069715;28;20474;-70
2022/07/05 03:07:33;;;;;;;2.40;1.30;;;17.30;99.90;;;;;;2080378;28;20491;-70
2022/07/05 03:08:34;;;;;;;2.80;1.15;;;17.40;99.90;;;;;;2079907;28;20040;-70
2022/07/05 03:09:34;;;;;;;2.20;1.30;;;17.30;99.90;;;;;;2079772;28;20120;-70
2022/07/05 03:10:36;;;;;;;1.30;1.20;;;17.40;99.90;;;;;;2078418;28;20507;-70
2022/07/05 03:11:37;;;;;;;2.65;1.48;;;17.30;99.90;;;;;;2077502;28;20029;-70
2022/07/05 03:12:37;;;;;;;2.60;1.77;;;17.30;99.90;;;;;;2079032;28;20018;-70
2022/07/05 03:13:38;;;;;;;1.67;1.48;;;17.40;99.90;;;;;;2066682;28;20133;-70
2022/07/05 03:14:39;;;;;;;1.90;1.50;;;17.30;99.90;;;;;;2070878;28;20041;-70
2022/07/05 03:15:39;;;;;;;1.70;1.27;;;17.30;99.90;;;;;;2076653;28;20108;-70
2022/07/05 03:16:40;;;;;;;2.90;1.40;;;17.30;99.90;;;;;;2077571;28;20021;-70
2022/07/05 03:17:40;;;;;;;5.13;1.80;;;17.30;99.90;;;;;;2077853;28;20038;-70
2022/07/05 03:18:41;;;;;;;2.03;1.40;;;17.30;99.90;;;;;;2078700;28;20112;-70
2022/07/05 03:19:42;;;;;;;3.40;1.73;;;17.30;99.90;;;;;;2077544;28;20071;-70
2022/07/05 03:20:42;;;;;;;4.70;1.55;;;17.30;99.90;;;;;;2078436;28;20024;-70
2022/07/05 03:21:43;;;;;;;1.70;1.60;;;17.30;99.90;;;;;;2078573;28;20489;-70
2022/07/05 03:22:44;;;;;;;1.70;1.27;;;17.30;99.90;;;;;;2079018;28;20300;-70
2022/07/05 03:23:45;;;;;;;2.67;1.67;;;17.30;99.90;;;;;;2075216;28;20156;-70
2022/07/05 03:24:45;;;;;;;1.88;1.23;;;17.30;99.90;;;;;;2074678;28;20624;-70
2022/07/05 03:25:46;;;;;;;3.90;1.70;;;17.30;99.90;;;;;;2079425;28;20083;-70
2022/07/05 03:26:46;;;;;;;1.50;1.40;;;17.30;99.90;;;;;;2075718;28;20033;-70
2022/07/05 03:27:47;;;;;;;3.40;1.90;;;17.30;99.90;;;;;;2076286;28;20124;-70
2022/07/05 03:28:47;;;;;;;2.70;1.50;;;17.30;99.90;;;;;;2074267;28;20065;-70
2022/07/05 03:29:48;;;;;;;1.92;1.65;;;17.30;99.90;;;;;;2077443;28;20053;-70
2022/07/05 03:30:49;;;;;;;3.60;1.50;;;17.30;99.90;;;;;;2076940;28;20060;-70
2022/07/05 03:31:49;;;;;;;2.22;1.63;;;17.30;99.90;;;;;;2078432;28;20041;-70
2022/07/05 03:32:50;;;;;;;2.33;1.40;;;17.30;99.90;;;;;;2078462;28;20113;-70
2022/07/05 03:33:50;;;;;;;2.67;1.70;;;17.30;99.90;;;;;;2077577;28;20041;-70
2022/07/05 03:34:51;;;;;;;4.55;1.75;;;17.30;99.90;;;;;;2078041;28;20136;-70
2022/07/05 03:35:52;;;;;;;1.50;1.33;;;17.30;99.90;;;;;;2076812;28;20560;-70
2022/07/05 03:36:52;;;;;;;1.90;1.70;;;17.30;99.90;;;;;;2077989;28;20056;-70
2022/07/05 03:37:53;;;;;;;2.20;1.60;;;17.30;99.90;;;;;;2077731;28;20021;-70
2022/07/05 03:38:53;;;;;;;1.63;1.52;;;17.30;99.90;;;;;;2077737;28;20033;-70
2022/07/05 03:39:54;;;;;;;2.25;1.80;;;17.30;99.90;;;;;;2077589;28;20590;-70
2022/07/05 03:40:55;;;;;;;4.68;1.67;;;17.30;99.90;;;;;;2076441;28;20088;-70
2022/07/05 03:41:55;;;;;;;3.15;1.50;;;17.30;99.90;;;;;;2078315;28;20018;-70
2022/07/05 03:42:56;;;;;;;2.67;1.70;;;17.30;99.90;;;;;;2075553;28;20117;-70
2022/07/05 03:43:56;;;;;;;1.45;1.20;;;17.30;99.90;;;;;;2074002;28;20022;-70
2022/07/05 03:44:57;;;;;;;4.50;2.08;;;17.30;99.90;;;;;;2075241;28;20392;-70
2022/07/05 03:45:57;;;;;;;3.05;1.35;;;17.30;99.90;;;;;;2076888;28;20034;-70
2022/07/05 03:46:59;;;;;;;4.05;2.00;;;17.30;99.90;;;;;;2076122;28;20049;-70
2022/07/05 03:48:00;;;;;;;2.92;2.05;;;17.20;99.90;;;;;;2080470;28;20489;-70
2022/07/05 03:49:00;;;;;;;2.97;1.77;;;17.20;99.90;;;;;;2076668;28;20366;-70
2022/07/05 03:50:01;;;;;;;1.90;1.52;;;17.20;99.90;;;;;;2077248;28;20018;-70
2022/07/05 03:51:02;;;;;;;5.43;2.65;;;17.20;99.90;;;;;;2077789;28;20045;-70
2022/07/05 03:52:02;;;;;;;3.40;2.03;;;17.30;99.90;;;;;;2078148;28;20064;-70
2022/07/05 03:53:03;;;;;;;3.50;1.83;;;17.20;99.90;;;;;;2077059;28;20063;-70
2022/07/05 03:54:04;;;;;;;3.63;2.03;;;17.20;99.90;;;;;;2078107;28;20060;-70
2022/07/05 03:55:05;;;;;;;3.22;1.67;;;17.20;99.90;;;;;;2076908;28;20021;-70
2022/07/05 03:56:05;;;;;;;2.17;1.40;;;17.20;99.90;;;;;;2077182;28;20029;-70
2022/07/05 03:57:06;;;;;;;2.55;1.80;;;17.20;99.90;;;;;;2077466;28;20053;-70
2022/07/05 03:58:06;;;;;;;2.15;1.73;;;17.20;99.90;;;;;;2078367;28;20041;-70
2022/07/05 03:59:07;;;;;;;2.75;1.75;;;17.20;99.90;;;;;;2077176;28;20025;-70
2022/07/05 04:00:08;;;;;;;2.22;2.03;;;17.20;99.90;;;;;;2076361;28;20433;-70
2022/07/05 04:01:09;;;;;;;3.28;2.22;;;17.20;99.90;;;;;;2075992;28;20093;-70
2022/07/05 04:02:11;;;;;;;4.97;2.63;;;17.20;99.90;;;;;;2076636;28;20028;-70
2022/07/05 04:03:11;;;;;;;3.28;2.03;;;17.20;99.90;;;;;;2076774;28;20105;-70
2022/07/05 04:04:12;;;;;;;2.33;1.83;;;17.20;99.90;;;;;;2079329;28;20030;-70
2022/07/05 04:05:12;;;;;;;3.80;2.20;;;17.20;99.90;;;;;;2076511;28;20026;-70
2022/07/05 04:06:13;;;;;;;5.00;2.53;;;17.20;99.90;;;;;;2076977;28;20088;-70
2022/07/05 04:07:14;;;;;;;2.22;1.83;;;17.20;99.90;;;;;;2077118;28;20393;-70
2022/07/05 04:08:15;;;;;;;2.78;1.85;;;17.20;99.90;;;;;;2077146;28;20108;-70
2022/07/05 04:09:15;;;;;;;2.10;1.50;;;17.20;99.90;;;;;;2078025;28;20092;-70
2022/07/05 04:10:17;;;;;;;5.00;2.08;;;17.20;99.90;;;;;;2077928;28;20052;-70
2022/07/05 04:11:17;;;;;;;2.88;1.85;;;17.20;99.90;;;;;;2076745;28;20380;-70
2022/07/05 04:12:18;;;;;;;3.92;2.35;;;17.20;99.90;;;;;;2077058;28;20017;-70
2022/07/05 04:13:18;;;;;;;2.80;1.92;;;17.20;99.90;;;;;;2076361;28;20025;-70
2022/07/05 04:14:19;;;;;;;3.17;2.20;;;17.30;99.90;;;;;;2078184;28;20034;-70
2022/07/05 04:15:20;;;;;;;2.72;1.85;;;17.30;99.90;;;;;;2073270;28;20029;-70
2022/07/05 04:16:21;;;;;;;7.25;2.83;;;17.30;99.90;;;;;;2075710;28;20030;-70
2022/07/05 04:17:22;;;;;;;2.13;1.90;;;17.30;99.90;;;;;;2074588;28;20446;-70
2022/07/05 04:18:23;;;;;;;4.57;1.90;;;17.30;99.90;;;;;;2074739;28;20037;-70
2022/07/05 04:19:23;;;;;;;4.90;1.25;;;17.30;99.90;;;;;;2077957;28;20021;-70
2022/07/05 04:20:24;;;;;;;2.58;1.52;;;17.30;99.90;;;;;;2075687;28;20022;-70
2022/07/05 04:21:25;;;;;;;1.92;1.80;;;17.30;99.90;;;;;;2076697;28;20022;-70
2022/07/05 04:22:25;;;;;;;4.78;2.00;;;17.30;99.90;;;;;;2076078;28;20393;-70
2022/07/05 04:23:26;;;;;;;2.75;1.60;;;17.40;99.90;;;;;;2075509;28;20525;-70
2022/07/05 04:24:27;;;;;;;3.28;1.80;;;17.40;99.90;;;;;;2077494;28;20052;-70
2022/07/05 04:25:28;;;;;;;2.03;1.70;;;17.50;99.90;;;;;;2076186;28;20305;-70
2022/07/05 04:26:28;;;;;;;3.72;2.08;;;17.60;99.90;;;;;;2076417;28;20080;-70
2022/07/05 04:27:29;;;;;;;1.75;1.52;;;17.70;99.90;;;;;;2078187;28;20026;-70
2022/07/05 04:28:29;;;;;;;2.13;1.80;;;17.70;99.90;;;;;;2077703;28;20071;-70
2022/07/05 04:29:30;;;;;;;2.13;1.60;;;17.90;99.90;;;;;;2078456;28;20428;-70
2022/07/05 04:30:31;;;;;;;2.97;1.80;;;18.00;99.90;;;;;;2075115;28;20052;-70
2022/07/05 04:31:32;;;;;;;3.10;1.90;;;18.00;99.90;;;;;;2076814;28;20025;-70
2022/07/05 04:32:34;;;;;;;1.90;1.58;;;18.10;99.90;;;;;;2077918;28;20086;-70
2022/07/05 04:33:34;;;;;;;4.47;1.65;;;18.10;99.90;;;;;;2074076;28;20066;-70
2022/07/05 04:34:35;;;;;;;2.35;1.50;;;18.20;99.90;;;;;;2077914;28;20470;-70
2022/07/05 04:35:35;;;;;;;2.58;1.40;;;18.20;99.90;;;;;;2076086;28;20087;-70
2022/07/05 04:36:40;;;;;;;2.45;1.50;;;18.20;99.90;;;;;;2078408;28;20112;-70
2022/07/05 04:37:41;;;;;;;1.83;1.73;;;18.30;99.90;;;;;;2078410;28;20056;-70
2022/07/05 04:38:41;;;;;;;2.15;1.30;;;18.30;99.90;;;;;;2075509;28;20041;-70
2022/07/05 04:39:42;;;;;;;2.72;1.60;;;18.40;99.90;;;;;;2077329;28;20477;-70
2022/07/05 04:40:43;;;;;;;1.65;1.20;;;18.40;99.90;;;;;;2077212;28;20013;-70
2022/07/05 04:41:43;;;;;;;2.42;1.83;;;18.40;99.90;;;;;;2077668;28;20048;-70
2022/07/05 04:42:44;;;;;;;2.72;1.50;;;18.50;99.90;;;;;;2074387;28;20051;-70
2022/07/05 04:43:44;;;;;;;1.60;1.50;;;18.50;99.90;;;;;;2076565;28;20025;-70
2022/07/05 04:44:45;;;;;;;2.67;1.40;;;18.50;99.90;;;;;;2078027;28;20051;-70
2022/07/05 04:45:46;;;;;;;1.77;1.50;;;18.50;99.90;;;;;;2076433;28;20080;-70
2022/07/05 04:46:46;;;;;;;2.40;1.38;;;18.50;99.90;;;;;;2077896;28;20029;-70
2022/07/05 04:47:47;;;;;;;2.60;1.55;;;18.50;99.90;;;;;;2076505;28;20049;-70
2022/07/05 04:48:47;;;;;;;3.00;1.52;;;18.50;99.90;;;;;;2075052;28;20025;-70
2022/07/05 04:49:48;;;;;;;3.60;1.60;;;18.50;99.90;;;;;;2075461;28;20026;-70
2022/07/05 04:50:49;;;;;;;4.20;1.77;;;18.60;99.90;;;;;;2075610;28;20037;-70
2022/07/05 04:51:49;;;;;;;3.63;1.75;;;18.60;99.90;;;;;;2076321;28;20035;-70
2022/07/05 04:52:50;;;;;;;3.17;1.60;;;18.70;99.90;;;;;;2075974;28;20100;-70
2022/07/05 04:53:50;;;;;;;3.38;1.85;;;18.70;99.90;;;;;;2077312;28;20512;-70
2022/07/05 04:54:52;;;;;;;5.45;2.25;;;18.80;99.90;;;;;;2076068;28;20029;-70
2022/07/05 04:55:53;;;;;;;2.85;1.55;;;18.90;99.90;;;;;;2076072;28;20553;-70
2022/07/05 04:56:53;;;;;;;3.38;1.95;;;19.00;99.90;;;;;;2075770;28;20389;-70
2022/07/05 04:57:54;;;;;;;3.00;1.92;;;19.10;99.90;;;;;;2075975;28;20038;-70
2022/07/05 04:58:54;;;;;;;3.47;1.95;;;19.20;99.90;;;;;;2076621;28;20397;-70
2022/07/05 04:59:55;;;;;;;3.47;1.80;;;19.20;99.90;;;;;;2078232;28;20500;-74
2022/07/05 05:00:55;;;;;;;4.07;1.95;;;19.30;99.90;;;;;;2074276;28;20121;-70
2022/07/05 05:01:56;;;;;;;2.45;2.00;;;19.40;99.90;;;;;;2076644;28;20017;-70
2022/07/05 05:02:57;;;;;;;3.90;2.08;;;19.50;99.90;;;;;;2076423;28;20076;-70
2022/07/05 05:03:57;;;;;;;3.13;1.55;;;19.60;99.90;;;;;;2078379;28;20098;-70
2022/07/05 05:04:58;;;;;;;3.30;1.88;;;19.70;99.90;;;;;;2075189;28;20095;-70
2022/07/05 05:05:58;;;;;;;5.32;2.10;;;19.70;99.90;;;;;;2075837;28;20068;-70
2022/07/05 05:06:59;;;;;;;2.10;1.90;;;19.90;99.90;;;;;;2077083;28;20033;-70
2022/07/05 05:08:00;;;;;;;2.95;1.73;;;19.90;99.90;;;;;;2076010;28;20108;-70
2022/07/05 05:09:01;;;;;;;3.08;2.10;;;20.00;99.90;;;;;;2077783;28;20022;-70
2022/07/05 05:10:01;;;;;;;2.63;1.80;;;20.10;99.90;;;;;;2077294;28;20029;-70
2022/07/05 05:11:02;;;;;;;2.38;1.90;;;20.20;99.90;;;;;;2075785;28;20057;-70
2022/07/05 05:12:03;;;;;;;3.60;2.33;;;20.20;99.90;;;;;;2075260;28;20507;-70
2022/07/05 05:13:03;;;;;;;5.63;2.17;;;20.30;99.90;;;;;;2074798;28;21436;-70
2022/07/05 05:14:04;;;;;;;6.13;2.10;;;20.30;99.90;;;;;;2074347;28;20753;-70
2022/07/05 05:15:09;;;;;;;4.65;2.00;;;20.30;99.90;;;;;;2074910;28;20365;-70
2022/07/05 05:16:10;;;;;;;3.67;1.85;;;20.40;99.90;;;;;;2075756;28;20388;-70
2022/07/05 05:17:10;;;;;;;2.55;1.92;;;20.50;99.90;;;;;;2076443;28;20030;-70
2022/07/05 05:18:11;;;;;;;3.15;2.15;;;20.60;99.90;;;;;;2076132;28;20052;-70
2022/07/05 05:19:12;;;;;;;3.85;2.00;;;20.70;99.90;;;;;;2072261;28;20034;-70
2022/07/05 05:20:15;;;;;;;3.15;1.83;;;20.70;99.90;;;;;;2077266;28;20030;-70